sensor_id;sensor_type;location;lat;lon;timestamp;P1;durP1;ratioP1;P2;durP2;ratioP2
15968;SDS011;8085;53.472;9.794;2022-07-21T00:02:21;16.47;;;9.40;;
15968;SDS011;8085;53.472;9.794;2022-07-21T00:08:58;16.93;;;8.93;;
15968;SDS011;8085;53.472;9.794;2022-07-21T00:12:07;13.23;;;9.27;;
15968;SDS011;8085;53.472;9.794;2022-07-21T00:18:20;12.50;;;8.83;;
15968;SDS011;8085;53.472;9.794;2022-07-21T00:32:04;15.97;;;9.37;;
15968;SDS011;8085;53.472;9.794;2022-07-21T00:38:28;15.47;;;10.13;;
15968;SDS011;8085;53.472;9.794;2022-07-21T00:41:45;14.00;;;9.80;;
15968;SDS011;8085;53.472;9.794;2022-07-21T00:44:51;15.03;;;9.80;;
15968;SDS011;8085;53.472;9.794;2022-07-21T00:47:28;19.87;;;10.53;;
15968;SDS011;8085;53.472;9.794;2022-07-21T00:50:15;19.33;;;10.30;;
15968;SDS011;8085;53.472;9.794;2022-07-21T00:53:06;16.73;;;10.50;;
15968;SDS011;8085;53.472;9.794;2022-07-21T00:56:27;20.07;;;11.40;;
15968;SDS011;8085;53.472;9.794;2022-07-21T00:59:18;16.07;;;9.57;;
15968;SDS011;8085;53.472;9.794;2022-07-21T01:05:01;17.63;;;10.10;;
15968;SDS011;8085;53.472;9.794;2022-07-21T01:07:31;14.27;;;9.13;;
15968;SDS011;8085;53.472;9.794;2022-07-21T01:16:09;16.40;;;10.43;;
15968;SDS011;8085;53.472;9.794;2022-07-21T01:18:52;19.67;;;10.57;;
15968;SDS011;8085;53.472;9.794;2022-07-21T01:21:29;17.17;;;10.10;;
15968;SDS011;8085;53.472;9.794;2022-07-21T01:23:58;14.47;;;10.07;;
15968;SDS011;8085;53.472;9.794;2022-07-21T01:26:30;18.17;;;11.13;;
15968;SDS011;8085;53.472;9.794;2022-07-21T01:29:00;16.90;;;10.70;;
15968;SDS011;8085;53.472;9.794;2022-07-21T01:31:27;16.97;;;11.00;;
15968;SDS011;8085;53.472;9.794;2022-07-21T01:33:57;19.20;;;11.30;;
15968;SDS011;8085;53.472;9.794;2022-07-21T01:36:24;16.57;;;10.37;;
15968;SDS011;8085;53.472;9.794;2022-07-21T01:38:52;21.47;;;10.30;;
15968;SDS011;8085;53.472;9.794;2022-07-21T01:41:37;19.13;;;10.60;;
15968;SDS011;8085;53.472;9.794;2022-07-21T01:44:07;17.97;;;9.50;;
15968;SDS011;8085;53.472;9.794;2022-07-21T01:46:47;17.40;;;10.13;;
15968;SDS011;8085;53.472;9.794;2022-07-21T01:49:16;18.10;;;9.00;;
15968;SDS011;8085;53.472;9.794;2022-07-21T01:51:50;14.93;;;9.63;;
15968;SDS011;8085;53.472;9.794;2022-07-21T01:54:19;16.47;;;9.20;;
15968;SDS011;8085;53.472;9.794;2022-07-21T01:56:48;15.20;;;8.37;;
15968;SDS011;8085;53.472;9.794;2022-07-21T01:59:27;14.40;;;8.67;;
15968;SDS011;8085;53.472;9.794;2022-07-21T02:02:42;16.07;;;8.60;;
15968;SDS011;8085;53.472;9.794;2022-07-21T02:05:22;11.60;;;8.00;;
15968;SDS011;8085;53.472;9.794;2022-07-21T02:07:55;12.40;;;7.93;;
15968;SDS011;8085;53.472;9.794;2022-07-21T02:10:41;15.37;;;8.07;;
15968;SDS011;8085;53.472;9.794;2022-07-21T02:16:10;13.33;;;7.40;;
15968;SDS011;8085;53.472;9.794;2022-07-21T02:18:56;13.90;;;8.17;;
15968;SDS011;8085;53.472;9.794;2022-07-21T02:21:58;12.37;;;7.50;;
15968;SDS011;8085;53.472;9.794;2022-07-21T02:24:33;12.57;;;7.83;;
15968;SDS011;8085;53.472;9.794;2022-07-21T02:30:50;13.60;;;7.17;;
15968;SDS011;8085;53.472;9.794;2022-07-21T02:33:36;10.53;;;6.87;;
15968;SDS011;8085;53.472;9.794;2022-07-21T02:36:25;14.07;;;7.40;;
15968;SDS011;8085;53.472;9.794;2022-07-21T02:39:08;11.53;;;7.10;;
15968;SDS011;8085;53.472;9.794;2022-07-21T02:41:35;11.10;;;7.17;;
15968;SDS011;8085;53.472;9.794;2022-07-21T02:44:10;9.47;;;6.67;;
15968;SDS011;8085;53.472;9.794;2022-07-21T02:46:57;12.43;;;6.80;;
15968;SDS011;8085;53.472;9.794;2022-07-21T02:49:27;11.37;;;6.67;;
15968;SDS011;8085;53.472;9.794;2022-07-21T02:52:11;12.10;;;7.03;;
15968;SDS011;8085;53.472;9.794;2022-07-21T02:54:38;12.43;;;6.37;;
15968;SDS011;8085;53.472;9.794;2022-07-21T02:57:07;12.50;;;7.20;;
15968;SDS011;8085;53.472;9.794;2022-07-21T02:59:36;15.47;;;7.03;;
15968;SDS011;8085;53.472;9.794;2022-07-21T03:02:03;12.63;;;6.60;;
15968;SDS011;8085;53.472;9.794;2022-07-21T03:04:30;9.83;;;6.30;;
15968;SDS011;8085;53.472;9.794;2022-07-21T03:10:14;13.97;;;7.00;;
15968;SDS011;8085;53.472;9.794;2022-07-21T03:13:34;17.00;;;7.03;;
15968;SDS011;8085;53.472;9.794;2022-07-21T03:19:08;14.43;;;7.13;;
15968;SDS011;8085;53.472;9.794;2022-07-21T03:21:36;14.23;;;6.27;;
15968;SDS011;8085;53.472;9.794;2022-07-21T03:24:03;11.63;;;6.60;;
15968;SDS011;8085;53.472;9.794;2022-07-21T03:26:30;12.23;;;6.17;;
15968;SDS011;8085;53.472;9.794;2022-07-21T03:29:00;12.60;;;6.87;;
15968;SDS011;8085;53.472;9.794;2022-07-21T03:31:33;12.60;;;6.80;;
15968;SDS011;8085;53.472;9.794;2022-07-21T03:34:22;11.87;;;6.40;;
15968;SDS011;8085;53.472;9.794;2022-07-21T03:37:03;13.80;;;6.17;;
15968;SDS011;8085;53.472;9.794;2022-07-21T03:39:48;13.57;;;5.63;;
15968;SDS011;8085;53.472;9.794;2022-07-21T03:42:18;10.30;;;6.30;;
15968;SDS011;8085;53.472;9.794;2022-07-21T03:44:54;12.37;;;5.80;;
15968;SDS011;8085;53.472;9.794;2022-07-21T03:47:29;9.33;;;5.87;;
15968;SDS011;8085;53.472;9.794;2022-07-21T03:50:13;10.27;;;5.57;;
15968;SDS011;8085;53.472;9.794;2022-07-21T03:52:42;11.60;;;5.50;;
15968;SDS011;8085;53.472;9.794;2022-07-21T03:55:10;12.87;;;5.83;;
15968;SDS011;8085;53.472;9.794;2022-07-21T03:57:48;11.07;;;5.70;;
15968;SDS011;8085;53.472;9.794;2022-07-21T04:00:27;11.30;;;5.60;;
15968;SDS011;8085;53.472;9.794;2022-07-21T04:08:07;10.27;;;5.10;;
15968;SDS011;8085;53.472;9.794;2022-07-21T04:13:04;10.97;;;5.33;;
15968;SDS011;8085;53.472;9.794;2022-07-21T04:15:58;8.57;;;4.97;;
15968;SDS011;8085;53.472;9.794;2022-07-21T04:18:29;10.70;;;5.57;;
15968;SDS011;8085;53.472;9.794;2022-07-21T04:20:58;10.47;;;5.20;;
15968;SDS011;8085;53.472;9.794;2022-07-21T04:23:28;12.10;;;5.37;;
15968;SDS011;8085;53.472;9.794;2022-07-21T04:25:56;10.73;;;5.30;;
15968;SDS011;8085;53.472;9.794;2022-07-21T04:28:24;10.63;;;5.10;;
15968;SDS011;8085;53.472;9.794;2022-07-21T04:30:53;14.20;;;5.90;;
15968;SDS011;8085;53.472;9.794;2022-07-21T04:33:27;10.57;;;5.27;;
15968;SDS011;8085;53.472;9.794;2022-07-21T04:36:05;7.73;;;4.67;;
15968;SDS011;8085;53.472;9.794;2022-07-21T04:38:32;8.53;;;5.20;;
15968;SDS011;8085;53.472;9.794;2022-07-21T04:41:00;10.00;;;5.30;;
15968;SDS011;8085;53.472;9.794;2022-07-21T04:43:34;8.97;;;5.10;;
15968;SDS011;8085;53.472;9.794;2022-07-21T04:46:13;12.20;;;6.00;;
15968;SDS011;8085;53.472;9.794;2022-07-21T04:48:50;10.83;;;5.47;;
15968;SDS011;8085;53.472;9.794;2022-07-21T04:51:33;12.10;;;5.43;;
15968;SDS011;8085;53.472;9.794;2022-07-21T04:57:41;10.90;;;4.97;;
15968;SDS011;8085;53.472;9.794;2022-07-21T05:01:11;10.07;;;5.10;;
15968;SDS011;8085;53.472;9.794;2022-07-21T05:03:38;15.13;;;5.33;;
15968;SDS011;8085;53.472;9.794;2022-07-21T05:06:07;9.50;;;5.10;;
15968;SDS011;8085;53.472;9.794;2022-07-21T05:08:34;9.67;;;5.90;;
15968;SDS011;8085;53.472;9.794;2022-07-21T05:11:01;7.57;;;5.03;;
15968;SDS011;8085;53.472;9.794;2022-07-21T05:13:28;11.07;;;5.80;;
15968;SDS011;8085;53.472;9.794;2022-07-21T05:15:55;11.53;;;5.83;;
15968;SDS011;8085;53.472;9.794;2022-07-21T05:18:22;12.13;;;6.17;;
15968;SDS011;8085;53.472;9.794;2022-07-21T05:20:50;11.23;;;5.73;;
15968;SDS011;8085;53.472;9.794;2022-07-21T05:23:18;14.73;;;6.50;;
15968;SDS011;8085;53.472;9.794;2022-07-21T05:25:45;13.07;;;6.13;;
15968;SDS011;8085;53.472;9.794;2022-07-21T05:28:12;16.70;;;6.60;;
15968;SDS011;8085;53.472;9.794;2022-07-21T05:30:39;10.67;;;6.67;;
15968;SDS011;8085;53.472;9.794;2022-07-21T05:33:06;14.53;;;6.73;;
15968;SDS011;8085;53.472;9.794;2022-07-21T05:35:33;11.77;;;6.60;;
15968;SDS011;8085;53.472;9.794;2022-07-21T05:38:00;18.40;;;6.63;;
15968;SDS011;8085;53.472;9.794;2022-07-21T05:40:29;11.47;;;6.67;;
15968;SDS011;8085;53.472;9.794;2022-07-21T05:42:56;14.33;;;6.60;;
15968;SDS011;8085;53.472;9.794;2022-07-21T05:45:23;11.77;;;7.10;;
15968;SDS011;8085;53.472;9.794;2022-07-21T05:47:50;12.70;;;7.50;;
15968;SDS011;8085;53.472;9.794;2022-07-21T05:50:17;16.00;;;7.03;;
15968;SDS011;8085;53.472;9.794;2022-07-21T05:52:44;13.83;;;6.90;;
15968;SDS011;8085;53.472;9.794;2022-07-21T05:55:12;16.83;;;7.17;;
15968;SDS011;8085;53.472;9.794;2022-07-21T05:57:40;13.33;;;7.23;;
15968;SDS011;8085;53.472;9.794;2022-07-21T06:00:08;13.17;;;6.87;;
15968;SDS011;8085;53.472;9.794;2022-07-21T06:02:35;12.77;;;6.97;;
15968;SDS011;8085;53.472;9.794;2022-07-21T06:05:03;11.70;;;6.60;;
15968;SDS011;8085;53.472;9.794;2022-07-21T06:07:32;15.17;;;7.67;;
15968;SDS011;8085;53.472;9.794;2022-07-21T06:09:59;17.83;;;7.30;;
15968;SDS011;8085;53.472;9.794;2022-07-21T06:12:26;13.23;;;6.87;;
15968;SDS011;8085;53.472;9.794;2022-07-21T06:14:54;11.47;;;7.70;;
15968;SDS011;8085;53.472;9.794;2022-07-21T06:17:21;15.03;;;7.37;;
15968;SDS011;8085;53.472;9.794;2022-07-21T06:19:48;15.90;;;7.83;;
15968;SDS011;8085;53.472;9.794;2022-07-21T06:22:15;11.73;;;7.40;;
15968;SDS011;8085;53.472;9.794;2022-07-21T06:24:42;12.83;;;7.47;;
15968;SDS011;8085;53.472;9.794;2022-07-21T06:27:09;16.30;;;8.03;;
15968;SDS011;8085;53.472;9.794;2022-07-21T06:29:36;13.13;;;8.03;;
15968;SDS011;8085;53.472;9.794;2022-07-21T06:32:05;13.43;;;8.30;;
15968;SDS011;8085;53.472;9.794;2022-07-21T06:34:32;15.47;;;8.13;;
15968;SDS011;8085;53.472;9.794;2022-07-21T06:36:59;12.10;;;7.97;;
15968;SDS011;8085;53.472;9.794;2022-07-21T06:39:26;18.20;;;8.90;;
15968;SDS011;8085;53.472;9.794;2022-07-21T06:41:53;16.20;;;8.47;;
15968;SDS011;8085;53.472;9.794;2022-07-21T06:44:20;15.10;;;8.00;;
15968;SDS011;8085;53.472;9.794;2022-07-21T06:46:50;17.00;;;8.63;;
15968;SDS011;8085;53.472;9.794;2022-07-21T06:49:18;14.73;;;8.80;;
15968;SDS011;8085;53.472;9.794;2022-07-21T06:51:45;13.67;;;8.10;;
15968;SDS011;8085;53.472;9.794;2022-07-21T06:54:12;12.07;;;8.77;;
15968;SDS011;8085;53.472;9.794;2022-07-21T06:56:39;16.93;;;8.43;;
15968;SDS011;8085;53.472;9.794;2022-07-21T06:59:05;16.60;;;9.07;;
15968;SDS011;8085;53.472;9.794;2022-07-21T07:01:32;17.13;;;8.77;;
15968;SDS011;8085;53.472;9.794;2022-07-21T07:04:01;19.73;;;9.00;;
15968;SDS011;8085;53.472;9.794;2022-07-21T07:06:29;15.57;;;9.80;;
15968;SDS011;8085;53.472;9.794;2022-07-21T07:08:56;18.30;;;10.37;;
15968;SDS011;8085;53.472;9.794;2022-07-21T07:11:23;18.63;;;10.17;;
15968;SDS011;8085;53.472;9.794;2022-07-21T07:13:50;17.47;;;9.70;;
15968;SDS011;8085;53.472;9.794;2022-07-21T07:16:17;18.00;;;9.37;;
15968;SDS011;8085;53.472;9.794;2022-07-21T07:18:44;13.97;;;9.77;;
15968;SDS011;8085;53.472;9.794;2022-07-21T07:21:11;23.03;;;11.77;;
15968;SDS011;8085;53.472;9.794;2022-07-21T07:23:42;19.63;;;10.40;;
15968;SDS011;8085;53.472;9.794;2022-07-21T07:26:09;16.83;;;10.50;;
15968;SDS011;8085;53.472;9.794;2022-07-21T07:28:36;16.87;;;10.33;;
15968;SDS011;8085;53.472;9.794;2022-07-21T07:31:03;19.27;;;11.47;;
15968;SDS011;8085;53.472;9.794;2022-07-21T07:33:30;19.53;;;11.83;;
15968;SDS011;8085;53.472;9.794;2022-07-21T07:35:57;23.40;;;11.83;;
15968;SDS011;8085;53.472;9.794;2022-07-21T07:38:24;16.70;;;10.97;;
15968;SDS011;8085;53.472;9.794;2022-07-21T07:40:52;20.90;;;11.97;;
15968;SDS011;8085;53.472;9.794;2022-07-21T07:43:19;14.47;;;11.37;;
15968;SDS011;8085;53.472;9.794;2022-07-21T07:45:46;19.73;;;11.77;;
15968;SDS011;8085;53.472;9.794;2022-07-21T07:48:13;16.90;;;10.87;;
15968;SDS011;8085;53.472;9.794;2022-07-21T07:50:40;20.10;;;10.87;;
15968;SDS011;8085;53.472;9.794;2022-07-21T07:53:07;17.57;;;10.93;;
15968;SDS011;8085;53.472;9.794;2022-07-21T07:55:34;17.13;;;10.60;;
15968;SDS011;8085;53.472;9.794;2022-07-21T07:58:02;18.83;;;11.90;;
15968;SDS011;8085;53.472;9.794;2022-07-21T08:00:29;23.53;;;11.60;;
15968;SDS011;8085;53.472;9.794;2022-07-21T08:02:56;17.40;;;11.13;;
15968;SDS011;8085;53.472;9.794;2022-07-21T08:05:23;23.03;;;10.67;;
15968;SDS011;8085;53.472;9.794;2022-07-21T08:07:50;17.57;;;10.27;;
15968;SDS011;8085;53.472;9.794;2022-07-21T08:10:17;15.97;;;10.43;;
15968;SDS011;8085;53.472;9.794;2022-07-21T08:12:44;17.33;;;9.70;;
15968;SDS011;8085;53.472;9.794;2022-07-21T08:15:12;14.43;;;9.83;;
15968;SDS011;8085;53.472;9.794;2022-07-21T08:17:40;20.20;;;10.83;;
15968;SDS011;8085;53.472;9.794;2022-07-21T08:20:08;20.70;;;10.53;;
15968;SDS011;8085;53.472;9.794;2022-07-21T08:22:35;16.53;;;9.40;;
15968;SDS011;8085;53.472;9.794;2022-07-21T08:25:04;14.40;;;9.53;;
15968;SDS011;8085;53.472;9.794;2022-07-21T08:27:31;15.97;;;9.90;;
15968;SDS011;8085;53.472;9.794;2022-07-21T08:29:58;17.00;;;9.43;;
15968;SDS011;8085;53.472;9.794;2022-07-21T08:32:27;14.10;;;9.37;;
15968;SDS011;8085;53.472;9.794;2022-07-21T08:34:54;17.17;;;9.90;;
15968;SDS011;8085;53.472;9.794;2022-07-21T08:37:21;14.60;;;9.97;;
15968;SDS011;8085;53.472;9.794;2022-07-21T08:39:48;13.93;;;9.47;;
15968;SDS011;8085;53.472;9.794;2022-07-21T08:42:15;15.40;;;9.93;;
15968;SDS011;8085;53.472;9.794;2022-07-21T08:44:42;18.00;;;10.67;;
15968;SDS011;8085;53.472;9.794;2022-07-21T08:47:09;15.70;;;9.77;;
15968;SDS011;8085;53.472;9.794;2022-07-21T08:49:37;13.77;;;9.73;;
15968;SDS011;8085;53.472;9.794;2022-07-21T08:52:06;16.33;;;9.33;;
15968;SDS011;8085;53.472;9.794;2022-07-21T08:54:33;17.47;;;10.17;;
15968;SDS011;8085;53.472;9.794;2022-07-21T08:57:00;16.87;;;10.30;;
15968;SDS011;8085;53.472;9.794;2022-07-21T08:59:27;18.77;;;10.50;;
15968;SDS011;8085;53.472;9.794;2022-07-21T09:01:54;13.33;;;9.63;;
15968;SDS011;8085;53.472;9.794;2022-07-21T09:04:22;12.03;;;8.93;;
15968;SDS011;8085;53.472;9.794;2022-07-21T09:06:57;11.87;;;8.67;;
15968;SDS011;8085;53.472;9.794;2022-07-21T09:09:26;13.20;;;9.10;;
15968;SDS011;8085;53.472;9.794;2022-07-21T09:11:54;15.33;;;9.33;;
15968;SDS011;8085;53.472;9.794;2022-07-21T09:14:22;16.60;;;8.47;;
15968;SDS011;8085;53.472;9.794;2022-07-21T09:16:50;11.53;;;7.73;;
15968;SDS011;8085;53.472;9.794;2022-07-21T09:19:20;12.20;;;8.40;;
15968;SDS011;8085;53.472;9.794;2022-07-21T09:21:50;10.63;;;7.60;;
15968;SDS011;8085;53.472;9.794;2022-07-21T09:24:21;11.20;;;7.50;;
15968;SDS011;8085;53.472;9.794;2022-07-21T09:27:02;10.03;;;7.57;;
15968;SDS011;8085;53.472;9.794;2022-07-21T09:29:44;11.63;;;6.73;;
15968;SDS011;8085;53.472;9.794;2022-07-21T09:32:13;11.07;;;7.90;;
15968;SDS011;8085;53.472;9.794;2022-07-21T09:34:49;10.67;;;7.87;;
15968;SDS011;8085;53.472;9.794;2022-07-21T09:37:18;9.27;;;7.33;;
15968;SDS011;8085;53.472;9.794;2022-07-21T09:39:49;10.13;;;6.57;;
15968;SDS011;8085;53.472;9.794;2022-07-21T09:42:18;8.60;;;6.60;;
15968;SDS011;8085;53.472;9.794;2022-07-21T09:44:48;8.93;;;6.53;;
15968;SDS011;8085;53.472;9.794;2022-07-21T09:47:17;9.40;;;7.20;;
15968;SDS011;8085;53.472;9.794;2022-07-21T09:49:45;9.90;;;6.77;;
15968;SDS011;8085;53.472;9.794;2022-07-21T09:52:25;7.43;;;6.32;;
15968;SDS011;8085;53.472;9.794;2022-07-21T09:54:56;9.03;;;6.73;;
15968;SDS011;8085;53.472;9.794;2022-07-21T09:57:24;8.27;;;7.03;;
15968;SDS011;8085;53.472;9.794;2022-07-21T09:59:52;11.18;;;7.22;;
15968;SDS011;8085;53.472;9.794;2022-07-21T10:02:20;9.85;;;7.45;;
15968;SDS011;8085;53.472;9.794;2022-07-21T10:04:50;11.83;;;6.73;;
15968;SDS011;8085;53.472;9.794;2022-07-21T10:07:21;10.45;;;6.97;;
15968;SDS011;8085;53.472;9.794;2022-07-21T10:09:48;14.18;;;7.82;;
15968;SDS011;8085;53.472;9.794;2022-07-21T10:12:17;9.13;;;7.75;;
15968;SDS011;8085;53.472;9.794;2022-07-21T10:14:44;8.30;;;6.38;;
15968;SDS011;8085;53.472;9.794;2022-07-21T10:17:12;9.05;;;6.50;;
15968;SDS011;8085;53.472;9.794;2022-07-21T10:19:42;7.70;;;6.38;;
15968;SDS011;8085;53.472;9.794;2022-07-21T10:22:20;9.05;;;6.50;;
15968;SDS011;8085;53.472;9.794;2022-07-21T10:24:56;11.25;;;6.68;;
15968;SDS011;8085;53.472;9.794;2022-07-21T10:27:25;9.30;;;6.53;;
15968;SDS011;8085;53.472;9.794;2022-07-21T10:29:53;10.38;;;6.97;;
15968;SDS011;8085;53.472;9.794;2022-07-21T10:32:22;9.32;;;6.47;;
15968;SDS011;8085;53.472;9.794;2022-07-21T10:34:51;8.60;;;6.03;;
15968;SDS011;8085;53.472;9.794;2022-07-21T10:49:01;5.22;;;4.38;;
15968;SDS011;8085;53.472;9.794;2022-07-21T10:51:30;5.13;;;4.57;;
15968;SDS011;8085;53.472;9.794;2022-07-21T10:54:15;5.65;;;4.10;;
15968;SDS011;8085;53.472;9.794;2022-07-21T10:56:43;4.32;;;3.72;;
15968;SDS011;8085;53.472;9.794;2022-07-21T10:59:12;5.72;;;3.75;;
15968;SDS011;8085;53.472;9.794;2022-07-21T11:01:39;4.95;;;3.85;;
15968;SDS011;8085;53.472;9.794;2022-07-21T11:04:07;5.25;;;3.40;;
15968;SDS011;8085;53.472;9.794;2022-07-21T11:06:36;4.55;;;3.47;;
15968;SDS011;8085;53.472;9.794;2022-07-21T11:09:08;5.43;;;3.60;;
15968;SDS011;8085;53.472;9.794;2022-07-21T11:11:39;3.70;;;3.33;;
15968;SDS011;8085;53.472;9.794;2022-07-21T11:14:35;5.57;;;3.58;;
15968;SDS011;8085;53.472;9.794;2022-07-21T11:17:04;4.97;;;3.20;;
15968;SDS011;8085;53.472;9.794;2022-07-21T11:19:32;5.15;;;3.55;;
15968;SDS011;8085;53.472;9.794;2022-07-21T11:22:03;4.05;;;3.40;;
15968;SDS011;8085;53.472;9.794;2022-07-21T11:24:35;3.85;;;3.53;;
15968;SDS011;8085;53.472;9.794;2022-07-21T11:27:03;5.22;;;3.65;;
15968;SDS011;8085;53.472;9.794;2022-07-21T11:29:32;4.40;;;3.97;;
15968;SDS011;8085;53.472;9.794;2022-07-21T11:32:02;4.55;;;4.07;;
15968;SDS011;8085;53.472;9.794;2022-07-21T11:34:40;4.15;;;3.75;;
15968;SDS011;8085;53.472;9.794;2022-07-21T11:37:09;5.00;;;3.95;;
15968;SDS011;8085;53.472;9.794;2022-07-21T11:39:38;4.88;;;4.30;;
15968;SDS011;8085;53.472;9.794;2022-07-21T11:42:06;6.18;;;4.50;;
15968;SDS011;8085;53.472;9.794;2022-07-21T11:44:36;5.65;;;4.28;;
15968;SDS011;8085;53.472;9.794;2022-07-21T11:47:04;6.50;;;4.68;;
15968;SDS011;8085;53.472;9.794;2022-07-21T11:49:32;7.18;;;5.00;;
15968;SDS011;8085;53.472;9.794;2022-07-21T11:52:01;5.78;;;4.78;;
15968;SDS011;8085;53.472;9.794;2022-07-21T11:54:30;6.82;;;4.80;;
15968;SDS011;8085;53.472;9.794;2022-07-21T11:56:59;5.15;;;3.97;;
15968;SDS011;8085;53.472;9.794;2022-07-21T11:59:27;5.45;;;4.50;;
15968;SDS011;8085;53.472;9.794;2022-07-21T12:01:57;6.80;;;5.07;;
15968;SDS011;8085;53.472;9.794;2022-07-21T12:04:29;5.07;;;4.18;;
15968;SDS011;8085;53.472;9.794;2022-07-21T12:07:02;7.28;;;4.55;;
15968;SDS011;8085;53.472;9.794;2022-07-21T12:09:31;7.93;;;4.00;;
15968;SDS011;8085;53.472;9.794;2022-07-21T12:11:59;6.63;;;4.10;;
15968;SDS011;8085;53.472;9.794;2022-07-21T12:17:15;5.28;;;4.38;;
15968;SDS011;8085;53.472;9.794;2022-07-21T12:19:43;6.97;;;4.28;;
15968;SDS011;8085;53.472;9.794;2022-07-21T12:22:11;5.50;;;3.88;;
15968;SDS011;8085;53.472;9.794;2022-07-21T12:24:47;4.72;;;3.60;;
15968;SDS011;8085;53.472;9.794;2022-07-21T12:27:19;6.65;;;4.15;;
15968;SDS011;8085;53.472;9.794;2022-07-21T12:29:47;6.03;;;4.35;;
15968;SDS011;8085;53.472;9.794;2022-07-21T12:32:36;4.53;;;4.13;;
15968;SDS011;8085;53.472;9.794;2022-07-21T12:35:20;6.30;;;3.78;;
15968;SDS011;8085;53.472;9.794;2022-07-21T12:37:52;4.90;;;3.80;;
15968;SDS011;8085;53.472;9.794;2022-07-21T12:40:21;6.15;;;4.05;;
15968;SDS011;8085;53.472;9.794;2022-07-21T12:42:49;8.35;;;3.78;;
15968;SDS011;8085;53.472;9.794;2022-07-21T12:45:16;4.97;;;4.00;;
15968;SDS011;8085;53.472;9.794;2022-07-21T12:50:34;6.10;;;3.72;;
15968;SDS011;8085;53.472;9.794;2022-07-21T12:53:04;4.32;;;3.33;;
15968;SDS011;8085;53.472;9.794;2022-07-21T12:55:31;4.40;;;2.97;;
15968;SDS011;8085;53.472;9.794;2022-07-21T12:57:58;4.53;;;2.40;;
15968;SDS011;8085;53.472;9.794;2022-07-21T13:00:25;3.67;;;2.10;;
15968;SDS011;8085;53.472;9.794;2022-07-21T13:02:53;4.65;;;2.50;;
15968;SDS011;8085;53.472;9.794;2022-07-21T13:05:23;3.08;;;2.42;;
15968;SDS011;8085;53.472;9.794;2022-07-21T13:07:51;2.72;;;2.08;;
15968;SDS011;8085;53.472;9.794;2022-07-21T13:10:18;3.95;;;2.42;;
15968;SDS011;8085;53.472;9.794;2022-07-21T13:12:46;2.63;;;2.00;;
15968;SDS011;8085;53.472;9.794;2022-07-21T13:15:13;2.33;;;1.80;;
15968;SDS011;8085;53.472;9.794;2022-07-21T13:17:40;2.97;;;1.70;;
15968;SDS011;8085;53.472;9.794;2022-07-21T13:20:07;1.88;;;1.50;;
15968;SDS011;8085;53.472;9.794;2022-07-21T13:22:36;2.20;;;1.95;;
15968;SDS011;8085;53.472;9.794;2022-07-21T13:25:04;2.03;;;1.80;;
15968;SDS011;8085;53.472;9.794;2022-07-21T13:27:32;3.58;;;1.92;;
15968;SDS011;8085;53.472;9.794;2022-07-21T13:30:00;2.63;;;1.75;;
15968;SDS011;8085;53.472;9.794;2022-07-21T13:32:27;1.75;;;1.65;;
15968;SDS011;8085;53.472;9.794;2022-07-21T13:34:54;2.15;;;1.90;;
15968;SDS011;8085;53.472;9.794;2022-07-21T13:37:21;2.30;;;1.90;;
15968;SDS011;8085;53.472;9.794;2022-07-21T13:39:50;2.10;;;1.80;;
15968;SDS011;8085;53.472;9.794;2022-07-21T13:42:17;2.30;;;1.98;;
15968;SDS011;8085;53.472;9.794;2022-07-21T13:44:44;3.28;;;1.98;;
15968;SDS011;8085;53.472;9.794;2022-07-21T13:47:11;1.73;;;1.63;;
15968;SDS011;8085;53.472;9.794;2022-07-21T13:49:38;2.83;;;1.95;;
15968;SDS011;8085;53.472;9.794;2022-07-21T13:52:05;2.30;;;2.00;;
15968;SDS011;8085;53.472;9.794;2022-07-21T13:54:33;2.10;;;1.90;;
15968;SDS011;8085;53.472;9.794;2022-07-21T13:57:01;3.30;;;2.45;;
15968;SDS011;8085;53.472;9.794;2022-07-21T13:59:29;2.55;;;2.00;;
15968;SDS011;8085;53.472;9.794;2022-07-21T14:01:56;2.60;;;2.17;;
15968;SDS011;8085;53.472;9.794;2022-07-21T14:04:23;2.72;;;2.28;;
15968;SDS011;8085;53.472;9.794;2022-07-21T14:06:50;2.88;;;2.10;;
15968;SDS011;8085;53.472;9.794;2022-07-21T14:09:17;2.72;;;2.17;;
15968;SDS011;8085;53.472;9.794;2022-07-21T14:11:45;2.97;;;2.17;;
15968;SDS011;8085;53.472;9.794;2022-07-21T14:14:13;3.63;;;2.35;;
15968;SDS011;8085;53.472;9.794;2022-07-21T14:16:46;2.92;;;2.50;;
15968;SDS011;8085;53.472;9.794;2022-07-21T14:19:13;3.17;;;2.35;;
15968;SDS011;8085;53.472;9.794;2022-07-21T14:21:41;3.53;;;2.65;;
15968;SDS011;8085;53.472;9.794;2022-07-21T14:24:21;6.78;;;3.08;;
15968;SDS011;8085;53.472;9.794;2022-07-21T14:27:05;7.95;;;3.22;;
15968;SDS011;8085;53.472;9.794;2022-07-21T14:29:33;5.22;;;2.58;;
15968;SDS011;8085;53.472;9.794;2022-07-21T14:32:00;3.55;;;2.75;;
15968;SDS011;8085;53.472;9.794;2022-07-21T14:34:27;3.58;;;2.78;;
15968;SDS011;8085;53.472;9.794;2022-07-21T14:36:54;4.20;;;2.92;;
15968;SDS011;8085;53.472;9.794;2022-07-21T14:39:21;3.43;;;3.13;;
15968;SDS011;8085;53.472;9.794;2022-07-21T14:41:48;4.45;;;3.50;;
15968;SDS011;8085;53.472;9.794;2022-07-21T14:44:16;3.35;;;3.03;;
15968;SDS011;8085;53.472;9.794;2022-07-21T14:46:44;4.05;;;3.30;;
15968;SDS011;8085;53.472;9.794;2022-07-21T14:49:11;4.45;;;3.22;;
15968;SDS011;8085;53.472;9.794;2022-07-21T14:51:38;3.63;;;3.33;;
15968;SDS011;8085;53.472;9.794;2022-07-21T14:54:05;4.40;;;3.75;;
15968;SDS011;8085;53.472;9.794;2022-07-21T14:56:32;5.38;;;4.20;;
15968;SDS011;8085;53.472;9.794;2022-07-21T14:58:59;5.10;;;4.10;;
15968;SDS011;8085;53.472;9.794;2022-07-21T15:01:26;5.30;;;4.45;;
15968;SDS011;8085;53.472;9.794;2022-07-21T15:03:54;5.47;;;4.65;;
15968;SDS011;8085;53.472;9.794;2022-07-21T15:06:21;5.17;;;4.63;;
15968;SDS011;8085;53.472;9.794;2022-07-21T15:08:48;6.33;;;4.60;;
15968;SDS011;8085;53.472;9.794;2022-07-21T15:11:15;6.63;;;4.57;;
15968;SDS011;8085;53.472;9.794;2022-07-21T15:13:43;6.00;;;4.07;;
15968;SDS011;8085;53.472;9.794;2022-07-21T15:16:10;7.10;;;4.20;;
15968;SDS011;8085;53.472;9.794;2022-07-21T15:18:37;5.07;;;3.80;;
15968;SDS011;8085;53.472;9.794;2022-07-21T15:21:05;5.33;;;4.07;;
15968;SDS011;8085;53.472;9.794;2022-07-21T15:23:32;5.10;;;4.30;;
15968;SDS011;8085;53.472;9.794;2022-07-21T15:25:59;6.13;;;4.60;;
15968;SDS011;8085;53.472;9.794;2022-07-21T15:28:26;5.20;;;4.47;;
15968;SDS011;8085;53.472;9.794;2022-07-21T15:30:53;6.17;;;5.03;;
15968;SDS011;8085;53.472;9.794;2022-07-21T15:33:20;6.60;;;5.30;;
15968;SDS011;8085;53.472;9.794;2022-07-21T15:35:47;6.73;;;5.90;;
15968;SDS011;8085;53.472;9.794;2022-07-21T15:38:20;7.70;;;6.37;;
15968;SDS011;8085;53.472;9.794;2022-07-21T15:40:47;9.40;;;6.40;;
15968;SDS011;8085;53.472;9.794;2022-07-21T15:43:14;9.53;;;6.83;;
15968;SDS011;8085;53.472;9.794;2022-07-21T15:45:41;10.93;;;8.20;;
15968;SDS011;8085;53.472;9.794;2022-07-21T15:48:08;10.53;;;8.43;;
15968;SDS011;8085;53.472;9.794;2022-07-21T15:50:35;11.93;;;8.47;;
15968;SDS011;8085;53.472;9.794;2022-07-21T15:53:02;9.57;;;8.07;;
15968;SDS011;8085;53.472;9.794;2022-07-21T15:55:31;13.43;;;8.67;;
15968;SDS011;8085;53.472;9.794;2022-07-21T15:57:58;10.83;;;8.97;;
15968;SDS011;8085;53.472;9.794;2022-07-21T16:00:26;9.33;;;8.00;;
15968;SDS011;8085;53.472;9.794;2022-07-21T16:02:53;11.03;;;7.07;;
15968;SDS011;8085;53.472;9.794;2022-07-21T16:05:22;9.27;;;8.17;;
15968;SDS011;8085;53.472;9.794;2022-07-21T16:07:51;11.93;;;7.33;;
15968;SDS011;8085;53.472;9.794;2022-07-21T16:10:19;9.40;;;7.77;;
15968;SDS011;8085;53.472;9.794;2022-07-21T16:12:49;9.17;;;7.23;;
15968;SDS011;8085;53.472;9.794;2022-07-21T16:15:17;11.93;;;7.53;;
15968;SDS011;8085;53.472;9.794;2022-07-21T16:17:45;9.10;;;7.60;;
15968;SDS011;8085;53.472;9.794;2022-07-21T16:20:13;8.93;;;7.73;;
15968;SDS011;8085;53.472;9.794;2022-07-21T16:22:42;11.33;;;7.87;;
15968;SDS011;8085;53.472;9.794;2022-07-21T16:25:10;7.90;;;6.90;;
15968;SDS011;8085;53.472;9.794;2022-07-21T16:27:38;10.13;;;8.13;;